Time;durP1;ratioP1;P1;durP2;ratioP2;P2;SDS_P1;SDS_P2;PMS_P1;PMS_P2;Temp;Humidity;BMP_temperature;BMP_pressure;BME280_temperature;BME280_humidity;BME280_pressure;Samples;Min_cycle;Max_cycle;Signal;HPM_P1;HPM_P2
2024/01/10 00:01:49;;;;;;;48.17;23.60;;;;;;;-0.76;100.00;100740.41;5057366;28;20398;-69
2024/01/10 00:04:16;;;;;;;44.08;22.10;;;;;;;-0.80;100.00;100735.59;5039294;28;20020;-69
2024/01/10 00:06:42;;;;;;;49.00;22.20;;;;;;;-0.83;100.00;100742.41;5057296;28;20028;-68
2024/01/10 00:09:08;;;;;;;48.67;23.33;;;;;;;-0.87;100.00;100738.44;5039740;28;20024;-68
2024/01/10 00:11:33;;;;;;;40.10;22.15;;;;;;;-1.32;100.00;100737.59;5058431;28;20049;-69
2024/01/10 00:13:59;;;;;;;37.45;22.33;;;;;;;-1.01;100.00;100735.00;5057078;28;20032;-68
2024/01/10 00:16:28;;;;;;;37.78;21.65;;;;;;;-0.91;100.00;100745.44;5057299;28;20554;-69
2024/01/10 00:18:54;;;;;;;48.47;24.17;;;;;;;-0.76;100.00;100751.41;5057103;28;20056;-68
2024/01/10 00:21:20;;;;;;;43.58;23.02;;;;;;;-0.87;100.00;100747.53;5056984;28;20135;-69
2024/01/10 00:23:45;;;;;;;49.38;24.63;;;;;;;-0.91;100.00;100754.50;5065858;28;20464;-69
2024/01/10 00:26:11;;;;;;;38.58;20.42;;;;;;;-0.78;100.00;100763.72;5050200;28;20032;-69
2024/01/10 00:28:36;;;;;;;49.75;23.33;;;;;;;-0.84;100.00;100759.97;5057207;28;20029;-69
2024/01/10 00:31:05;;;;;;;44.88;22.75;;;;;;;-0.66;100.00;100763.78;5059746;28;20074;-69
2024/01/10 00:33:30;;;;;;;53.05;24.65;;;;;;;-0.61;100.00;100767.53;5076934;28;20020;-69
2024/01/10 00:35:56;;;;;;;38.70;19.48;;;;;;;-0.78;100.00;100761.78;5076865;28;20025;-69
2024/01/10 00:38:21;;;;;;;42.60;19.88;;;;;;;-0.72;100.00;100762.78;5077040;28;20047;-69
2024/01/10 00:40:46;;;;;;;35.03;19.52;;;;;;;-0.71;100.00;100776.31;5075528;28;20016;-69
2024/01/10 00:43:12;;;;;;;40.95;18.55;;;;;;;-0.75;100.00;100769.56;5077035;28;20020;-67
2024/01/10 00:45:37;;;;;;;30.52;17.65;;;;;;;-0.68;100.00;100771.44;5076879;28;20028;-67
2024/01/10 00:48:04;;;;;;;33.13;18.52;;;;;;;-0.57;100.00;100768.75;5073698;28;20031;-67
2024/01/10 00:50:29;;;;;;;37.58;19.48;;;;;;;-0.43;100.00;100772.19;5073685;28;20077;-67
2024/01/10 00:52:55;;;;;;;39.88;21.25;;;;;;;-0.49;100.00;100772.28;5054035;28;20021;-67
2024/01/10 00:55:20;;;;;;;38.85;20.48;;;;;;;-0.37;100.00;100764.06;5035693;28;20033;-67
2024/01/10 00:57:46;;;;;;;46.72;22.38;;;;;;;-0.32;100.00;100767.00;5035621;28;20104;-67
2024/01/10 01:00:33;;;;;;;47.53;22.20;;;;;;;-0.36;100.00;100766.59;5052903;28;20025;-67
2024/01/10 01:02:57;;;;;;;47.53;21.88;;;;;;;-0.32;100.00;100767.81;5072158;28;20111;-67
2024/01/10 01:05:23;;;;;;;44.47;21.30;;;;;;;-0.35;100.00;100765.53;5073423;28;20116;-67
2024/01/10 01:07:48;;;;;;;35.63;18.98;;;;;;;-0.47;100.00;100764.63;5073385;28;20024;-68
2024/01/10 01:10:14;;;;;;;36.47;19.30;;;;;;;-0.41;100.00;100762.88;5054757;28;20044;-67
2024/01/10 01:12:39;;;;;;;34.78;18.10;;;;;;;-0.53;100.00;100769.13;5072819;28;20044;-67
2024/01/10 01:15:05;;;;;;;38.53;19.38;;;;;;;-0.53;100.00;100771.06;5073182;28;20090;-67
2024/01/10 01:17:31;;;;;;;37.47;16.85;;;;;;;-0.44;100.00;100776.00;5050606;28;20422;-68
2024/01/10 01:19:57;;;;;;;39.38;20.42;;;;;;;-0.45;100.00;100777.09;5053250;28;20090;-67
2024/01/10 01:22:22;;;;;;;37.47;19.35;;;;;;;-0.48;100.00;100765.69;5064486;28;20024;-67
2024/01/10 01:24:47;;;;;;;37.28;18.52;;;;;;;-0.47;100.00;100770.97;5072841;28;20508;-68
2024/01/10 01:27:13;;;;;;;39.78;19.02;;;;;;;-0.47;100.00;100765.47;5035213;28;20036;-67
2024/01/10 01:29:38;;;;;;;35.22;18.13;;;;;;;-0.54;100.00;100763.84;5053038;28;20029;-67
2024/01/10 01:32:04;;;;;;;43.65;20.95;;;;;;;-0.41;100.00;100763.72;5049544;28;20571;-67
2024/01/10 01:34:29;;;;;;;30.67;17.65;;;;;;;-0.47;100.00;100770.13;5048445;28;20511;-67
2024/01/10 01:36:55;;;;;;;38.40;20.02;;;;;;;-0.58;100.00;100760.75;5052462;28;20035;-67
2024/01/10 01:39:20;;;;;;;33.72;18.02;;;;;;;-0.55;100.00;100757.53;5052760;28;20029;-67
2024/01/10 01:41:46;;;;;;;38.03;20.73;;;;;;;-0.59;100.00;100757.16;5055047;28;20116;-67
2024/01/10 01:44:11;;;;;;;41.17;19.00;;;;;;;-0.55;100.00;100767.66;5072763;28;20508;-67
2024/01/10 01:46:37;;;;;;;38.15;19.33;;;;;;;-0.62;100.00;100759.50;5072606;28;20028;-67
2024/01/10 01:49:04;;;;;;;38.05;20.38;;;;;;;-0.43;100.00;100755.69;5050563;28;20547;-67
2024/01/10 01:51:31;;;;;;;36.00;19.15;;;;;;;-0.44;100.00;100754.03;5054783;28;20493;-67
2024/01/10 01:53:57;;;;;;;40.25;21.10;;;;;;;-0.35;100.00;100756.47;5054999;28;20086;-69
2024/01/10 01:56:23;;;;;;;36.78;18.42;;;;;;;-0.42;100.00;100751.03;5072417;28;20095;-69
2024/01/10 01:58:51;;;;;;;31.95;18.13;;;;;;;-0.49;100.00;100747.53;5072025;28;20036;-69
2024/01/10 02:01:21;;;;;;;35.35;18.33;;;;;;;-0.37;100.00;100747.59;5072034;28;20020;-69
2024/01/10 02:03:47;;;;;;;32.72;17.70;;;;;;;-0.37;100.00;100742.09;5054253;28;20041;-69
2024/01/10 02:06:12;;;;;;;39.70;17.45;;;;;;;-0.28;100.00;100746.19;5051836;28;20507;-69
2024/01/10 02:08:38;;;;;;;35.42;19.33;;;;;;;-0.39;100.00;100744.22;5052187;28;20032;-69
2024/01/10 02:11:04;;;;;;;35.67;18.98;;;;;;;-0.35;100.00;100739.97;5052112;28;20555;-69
2024/01/10 02:13:32;;;;;;;35.00;19.77;;;;;;;-0.21;100.00;100748.88;5034145;28;20040;-69
2024/01/10 02:15:58;;;;;;;32.75;18.77;;;;;;;-0.20;100.00;100734.91;5034110;28;20024;-69
2024/01/10 02:18:24;;;;;;;31.27;18.27;;;;;;;-0.17;100.00;100741.84;5052067;28;20517;-69
2024/01/10 02:20:50;;;;;;;38.85;20.70;;;;;;;-0.19;100.00;100739.31;5051980;28;20036;-68
2024/01/10 02:23:15;;;;;;;34.35;18.75;;;;;;;-0.18;100.00;100746.50;5044412;28;20121;-69
2024/01/10 02:25:41;;;;;;;33.13;18.67;;;;;;;-0.13;100.00;100742.19;5051819;28;20025;-69
2024/01/10 02:28:07;;;;;;;31.85;18.48;;;;;;;-0.15;100.00;100743.28;5050549;28;20033;-68
2024/01/10 02:30:33;;;;;;;35.72;16.60;;;;;;;-0.09;100.00;100747.00;5034652;28;20075;-68
2024/01/10 02:32:59;;;;;;;32.92;18.65;;;;;;;-0.12;100.00;100749.38;5051433;28;20115;-71
2024/01/10 02:35:24;;;;;;;35.83;20.73;;;;;;;-0.10;100.00;100742.59;5051907;28;20068;-69
2024/01/10 02:37:51;;;;;;;32.85;18.13;;;;;;;-0.36;100.00;100739.13;5068929;28;20020;-68
2024/01/10 02:40:17;;;;;;;35.42;18.27;;;;;;;-0.44;100.00;100739.41;5049622;28;20136;-69
2024/01/10 02:42:42;;;;;;;38.28;20.55;;;;;;;-0.25;100.00;100731.16;5050848;28;20021;-69
2024/01/10 02:45:09;;;;;;;40.90;22.58;;;;;;;-0.13;100.00;100739.44;5051556;28;20028;-69
2024/01/10 02:47:34;;;;;;;41.85;20.88;;;;;;;-0.17;100.00;100742.66;5050191;28;20314;-69
2024/01/10 02:50:00;;;;;;;37.80;20.00;;;;;;;-0.26;100.00;100733.06;5051514;28;20103;-69
2024/01/10 02:52:25;;;;;;;33.30;19.05;;;;;;;-0.29;100.00;100737.13;5060310;28;20028;-69
2024/01/10 02:54:51;;;;;;;37.53;20.50;;;;;;;-0.32;100.00;100734.00;5071258;28;20033;-69
2024/01/10 02:57:16;;;;;;;34.92;20.08;;;;;;;-0.34;100.00;100725.97;5071290;28;20065;-69
2024/01/10 02:59:41;;;;;;;36.05;21.08;;;;;;;-0.19;100.00;100725.56;5053811;28;20040;-69
2024/01/10 03:02:07;;;;;;;31.02;17.95;;;;;;;-0.15;100.00;100734.19;5057348;28;20029;-69
2024/01/10 03:04:32;;;;;;;38.08;21.00;;;;;;;-0.43;100.00;100721.84;5071370;28;20104;-68
2024/01/10 03:06:58;;;;;;;41.38;21.20;;;;;;;-0.63;100.00;100722.09;5071156;28;20028;-67
2024/01/10 03:09:23;;;;;;;48.08;25.98;;;;;;;-0.83;100.00;100731.44;5071205;28;20029;-67
2024/01/10 03:11:49;;;;;;;61.80;32.08;;;;;;;-0.55;100.00;100719.06;5049133;28;20040;-67
2024/01/10 03:14:14;;;;;;;52.65;26.50;;;;;;;-0.44;100.00;100718.28;5053233;28;20043;-67
2024/01/10 03:16:40;;;;;;;58.90;29.70;;;;;;;-0.65;100.00;100727.84;5040305;28;20171;-68
2024/01/10 03:19:05;;;;;;;44.90;25.33;;;;;;;-0.68;100.00;100716.47;5051073;28;20063;-67
2024/01/10 03:21:31;;;;;;;62.83;30.95;;;;;;;-0.63;100.00;100724.84;5051412;28;20049;-67
2024/01/10 03:23:58;;;;;;;53.92;28.90;;;;;;;-0.53;100.00;100725.16;5052805;28;20463;-67
2024/01/10 03:26:24;;;;;;;67.88;29.65;;;;;;;-0.73;100.00;100725.38;5070712;28;20020;-67
2024/01/10 03:28:50;;;;;;;98.82;43.88;;;;;;;-0.64;100.00;100725.91;5070977;28;20028;-67
2024/01/10 03:31:16;;;;;;;73.50;36.20;;;;;;;-0.41;100.00;100730.72;5070876;28;20047;-68
2024/01/10 03:33:42;;;;;;;76.13;36.75;;;;;;;-0.33;100.00;100726.81;5053783;28;20420;-67
2024/01/10 03:36:13;;;;;;;63.88;32.10;;;;;;;-0.25;100.00;100731.16;5033000;28;20021;-68
2024/01/10 03:38:39;;;;;;;55.45;28.63;;;;;;;-0.25;100.00;100725.66;5050811;28;20078;-67
2024/01/10 03:41:05;;;;;;;48.78;23.30;;;;;;;-0.20;100.00;100731.28;5050903;28;20024;-68
2024/01/10 03:43:30;;;;;;;43.78;21.23;;;;;;;-0.20;100.00;100723.88;5058884;28;20020;-68
2024/01/10 03:45:56;;;;;;;40.20;20.67;;;;;;;-0.11;100.00;100726.31;5032893;28;20071;-67
2024/01/10 03:48:22;;;;;;;40.45;20.08;;;;;;;-0.22;100.00;100716.94;5050733;28;20337;-68
2024/01/10 03:50:48;;;;;;;39.75;20.30;;;;;;;-0.22;100.00;100734.28;5050068;28;20409;-68
2024/01/10 03:53:13;;;;;;;32.63;18.25;;;;;;;-0.18;100.00;100724.50;5063566;28;20043;-67
2024/01/10 03:55:39;;;;;;;41.38;20.45;;;;;;;-0.10;100.00;100720.56;5070786;28;20028;-67
2024/01/10 03:58:04;;;;;;;39.05;21.23;;;;;;;-0.45;100.00;100718.50;5070679;28;20102;-67
2024/01/10 04:00:30;;;;;;;34.75;20.83;;;;;;;-0.69;100.00;100728.53;5070723;28;20108;-67
2024/01/10 04:02:56;;;;;;;35.03;17.70;;;;;;;-0.64;100.00;100728.66;5052159;28;20029;-67
2024/01/10 04:05:22;;;;;;;35.53;19.67;;;;;;;-0.36;100.00;100732.75;5048476;28;20075;-67
2024/01/10 04:07:47;;;;;;;36.92;17.77;;;;;;;-0.35;100.00;100728.97;5050436;28;20025;-67
2024/01/10 04:10:14;;;;;;;35.28;18.40;;;;;;;-0.25;100.00;100734.72;5050438;28;20053;-67
2024/01/10 04:12:43;;;;;;;34.40;21.25;;;;;;;-0.20;100.00;100732.16;5050408;28;20494;-67
2024/01/10 04:15:09;;;;;;;39.70;18.93;;;;;;;-0.50;100.00;100732.94;5070693;28;20029;-71
2024/01/10 04:17:35;;;;;;;36.38;18.20;;;;;;;-0.47;100.00;100731.63;5070436;28;20036;-71
2024/01/10 04:20:01;;;;;;;30.23;17.58;;;;;;;-0.59;100.00;100728.84;5070444;28;20086;-71
2024/01/10 04:22:26;;;;;;;31.33;16.88;;;;;;;-0.90;100.00;100728.75;5064923;28;20102;-70
2024/01/10 04:24:52;;;;;;;36.95;17.55;;;;;;;-1.00;100.00;100734.75;5056347;28;20035;-70
2024/01/10 04:27:20;;;;;;;30.77;16.67;;;;;;;-0.91;100.00;100742.72;5074069;28;20025;-70
2024/01/10 04:29:46;;;;;;;31.65;18.02;;;;;;;-1.42;100.00;100749.06;5056119;28;20063;-70
2024/01/10 04:32:11;;;;;;;35.47;19.25;;;;;;;-1.64;100.00;100751.34;5055687;28;20439;-71
2024/01/10 04:34:37;;;;;;;50.53;25.52;;;;;;;-1.59;100.00;100743.28;5073969;28;20024;-71
2024/01/10 04:37:02;;;;;;;45.08;23.77;;;;;;;-1.56;100.00;100751.09;5073160;28;20028;-70
2024/01/10 04:39:28;;;;;;;41.65;23.20;;;;;;;-1.72;100.00;100752.47;5073914;28;20027;-71
2024/01/10 04:41:54;;;;;;;38.58;18.35;;;;;;;-1.68;100.00;100752.88;5073649;28;20107;-70
2024/01/10 04:44:19;;;;;;;45.03;25.27;;;;;;;-1.52;100.00;100753.38;5055887;28;20033;-71
2024/01/10 04:46:45;;;;;;;40.63;21.83;;;;;;;-1.62;100.00;100765.69;5073834;28;20040;-71
2024/01/10 04:49:10;;;;;;;85.72;42.17;;;;;;;-1.73;100.00;100760.91;5073709;28;20021;-71
2024/01/10 04:51:36;;;;;;;125.20;60.05;;;;;;;-1.68;100.00;100761.09;5073637;28;20489;-70
2024/01/10 04:54:01;;;;;;;82.07;41.70;;;;;;;-1.76;100.00;100755.88;5072156;28;20024;-71
2024/01/10 04:56:27;;;;;;;65.75;32.08;;;;;;;-1.57;100.00;100767.78;5073644;28;20028;-70
2024/01/10 04:58:52;;;;;;;62.17;27.73;;;;;;;-1.54;100.00;100761.84;5073591;28;20036;-71
2024/01/10 05:01:18;;;;;;;67.60;30.98;;;;;;;-1.57;100.00;100765.03;5073589;28;20086;-70
2024/01/10 05:03:44;;;;;;;59.67;28.30;;;;;;;-1.52;100.00;100767.94;5073026;28;20017;-70
2024/01/10 05:06:10;;;;;;;50.17;25.58;;;;;;;-1.40;100.00;100773.56;5073517;28;20039;-70
2024/01/10 05:08:35;;;;;;;42.67;23.38;;;;;;;-1.23;100.00;100770.25;5072131;28;20016;-71
2024/01/10 05:11:01;;;;;;;42.10;21.95;;;;;;;-1.48;100.00;100768.34;5073297;28;20053;-71
2024/01/10 05:13:26;;;;;;;38.83;20.48;;;;;;;-1.50;100.00;100775.97;5068369;28;20044;-70
2024/01/10 05:15:52;;;;;;;40.13;21.95;;;;;;;-1.27;100.00;100770.69;5073291;28;20032;-71
2024/01/10 05:18:18;;;;;;;41.20;21.52;;;;;;;-0.99;100.00;100772.13;5055207;28;20031;-70
2024/01/10 05:20:44;;;;;;;40.30;21.23;;;;;;;-1.03;100.00;100776.41;5073219;28;20475;-70
2024/01/10 05:23:10;;;;;;;38.50;20.17;;;;;;;-1.19;100.00;100782.47;5053561;28;20056;-67
2024/01/10 05:25:36;;;;;;;39.45;20.05;;;;;;;-1.46;100.00;100778.03;5073033;28;20032;-67
2024/01/10 05:28:01;;;;;;;41.78;21.75;;;;;;;-1.42;100.00;100775.69;5054977;28;20398;-67
2024/01/10 05:30:27;;;;;;;53.17;25.88;;;;;;;-1.46;100.00;100788.16;5072990;28;20024;-67
2024/01/10 05:32:52;;;;;;;48.15;24.67;;;;;;;-1.26;100.00;100801.75;5068057;28;20497;-67
2024/01/10 05:35:18;;;;;;;50.92;28.20;;;;;;;-1.02;100.00;100797.31;5048973;28;20385;-67
2024/01/10 05:37:43;;;;;;;62.97;35.70;;;;;;;-0.87;100.00;100805.22;5052680;28;20025;-67
2024/01/10 05:40:09;;;;;;;95.93;56.42;;;;;;;-0.93;100.00;100802.53;5059037;28;20029;-68
2024/01/10 05:42:35;;;;;;;101.45;61.72;;;;;;;-0.92;100.00;100802.28;5052740;28;20111;-66
2024/01/10 05:45:02;;;;;;;82.10;48.80;;;;;;;-0.90;100.00;100800.19;5034852;28;20128;-67
2024/01/10 05:47:28;;;;;;;86.18;51.08;;;;;;;-0.79;100.00;100795.84;5052790;28;20032;-67
2024/01/10 05:49:53;;;;;;;70.88;42.38;;;;;;;-0.65;100.00;100802.06;5034703;28;20025;-67
2024/01/10 05:52:20;;;;;;;68.70;35.88;;;;;;;-1.18;100.00;100797.91;5052431;28;20017;-66
2024/01/10 05:54:45;;;;;;;64.28;37.25;;;;;;;-0.92;100.00;100806.97;5071300;28;20036;-67
2024/01/10 05:57:11;;;;;;;59.40;37.47;;;;;;;-1.27;100.00;100800.06;5046739;28;20025;-69
2024/01/10 05:59:36;;;;;;;69.03;42.55;;;;;;;-1.15;100.00;100808.41;5053064;28;20100;-67
2024/01/10 06:02:03;;;;;;;80.65;45.22;;;;;;;-0.94;100.00;100803.59;5051754;28;20386;-68
2024/01/10 06:04:30;;;;;;;106.55;56.70;;;;;;;-0.94;100.00;100803.59;5043037;28;20378;-69
2024/01/10 06:06:58;;;;;;;100.82;47.30;;;;;;;-0.99;100.00;100813.34;5050705;28;20028;-68
2024/01/10 06:09:23;;;;;;;111.20;52.80;;;;;;;-1.06;100.00;100822.72;5032376;28;20465;-66
2024/01/10 06:11:49;;;;;;;124.13;58.05;;;;;;;-1.11;100.00;100817.06;5050341;28;20053;-68
2024/01/10 06:14:15;;;;;;;145.98;72.57;;;;;;;-1.30;100.00;100815.09;5025767;28;20029;-67
2024/01/10 06:16:40;;;;;;;148.05;70.13;;;;;;;-1.44;100.00;100822.56;5052523;28;20043;-67
2024/01/10 06:19:06;;;;;;;140.20;66.35;;;;;;;-1.43;100.00;100828.91;5055076;28;20051;-68
2024/01/10 06:21:32;;;;;;;96.13;50.22;;;;;;;-1.72;100.00;100822.94;5032701;28;20028;-67
2024/01/10 06:23:57;;;;;;;88.25;41.00;;;;;;;-1.66;100.00;100834.94;5041319;28;20115;-67
2024/01/10 06:26:23;;;;;;;78.60;38.78;;;;;;;-1.93;100.00;100835.09;5066676;28;20037;-66
2024/01/10 06:28:48;;;;;;;77.28;40.45;;;;;;;-1.92;100.00;100834.03;5070432;28;20033;-67
2024/01/10 06:31:14;;;;;;;105.78;63.70;;;;;;;-1.82;100.00;100837.16;5062406;28;20028;-69
2024/01/10 06:33:40;;;;;;;81.82;49.70;;;;;;;-1.72;100.00;100843.00;5070637;28;20028;-69
2024/01/10 06:36:05;;;;;;;72.22;41.20;;;;;;;-1.71;100.00;100843.84;5052761;28;20413;-70
2024/01/10 06:38:31;;;;;;;78.72;41.33;;;;;;;-1.38;100.00;100841.97;5069684;28;20033;-68
2024/01/10 06:40:56;;;;;;;83.78;41.13;;;;;;;-1.15;100.00;100849.63;5052886;28;20485;-67
2024/01/10 06:43:22;;;;;;;89.72;41.35;;;;;;;-1.03;100.00;100849.72;5061096;28;20405;-68
2024/01/10 06:45:48;;;;;;;82.30;38.40;;;;;;;-1.05;100.00;100849.09;5048828;28;20039;-67
2024/01/10 06:48:14;;;;;;;90.80;42.55;;;;;;;-0.83;100.00;100852.31;5041752;28;20174;-67
2024/01/10 06:50:40;;;;;;;90.40;40.97;;;;;;;-0.68;100.00;100854.69;5065897;28;20039;-67
2024/01/10 06:53:05;;;;;;;78.28;40.08;;;;;;;-0.92;100.00;100857.22;5070619;28;20025;-68
2024/01/10 06:55:30;;;;;;;77.55;36.15;;;;;;;-0.89;100.00;100861.44;5069249;28;20032;-68
2024/01/10 06:57:56;;;;;;;70.07;37.40;;;;;;;-1.33;100.00;100866.84;5068883;28;20424;-67
2024/01/10 07:00:22;;;;;;;57.53;31.17;;;;;;;-1.32;100.00;100869.38;5038521;28;20025;-68
2024/01/10 07:02:49;;;;;;;58.95;34.55;;;;;;;-1.51;100.00;100871.16;5055748;28;20024;-68
2024/01/10 07:05:14;;;;;;;46.83;26.92;;;;;;;-1.56;100.00;100871.84;5069322;28;20167;-68
2024/01/10 07:07:41;;;;;;;42.50;24.27;;;;;;;-1.35;100.00;100863.50;5052356;28;20028;-69
2024/01/10 07:10:06;;;;;;;55.70;31.00;;;;;;;-1.48;100.00;100867.16;5069627;28;20017;-66
2024/01/10 07:12:35;;;;;;;60.08;34.15;;;;;;;-1.94;100.00;100871.81;5053468;28;20039;-67
2024/01/10 07:15:02;;;;;;;42.78;25.08;;;;;;;-1.85;100.00;100876.84;5069479;28;20024;-67
2024/01/10 07:17:28;;;;;;;41.40;24.25;;;;;;;-2.01;100.00;100883.63;5076510;28;20028;-67
2024/01/10 07:19:56;;;;;;;36.20;18.65;;;;;;;-2.17;100.00;100881.38;5066015;28;20102;-67
2024/01/10 07:22:22;;;;;;;36.90;18.70;;;;;;;-2.01;100.00;100886.38;5067494;28;20174;-66
2024/01/10 07:24:48;;;;;;;42.38;24.58;;;;;;;-1.83;100.00;100885.69;5063437;28;20087;-68
2024/01/10 07:27:14;;;;;;;36.92;20.45;;;;;;;-1.62;100.00;100883.69;5057291;28;20492;-68
2024/01/10 07:29:40;;;;;;;30.00;16.90;;;;;;;-1.44;100.00;100893.94;5066865;28;20028;-66
2024/01/10 07:32:11;;;;;;;32.63;16.63;;;;;;;-1.72;100.00;100897.88;5047047;28;20492;-68
2024/01/10 07:34:37;;;;;;;29.35;16.48;;;;;;;-1.53;100.00;100895.25;5058326;28;20076;-67
2024/01/10 07:37:03;;;;;;;23.00;13.85;;;;;;;-1.47;100.00;100899.03;5068460;28;20067;-68
2024/01/10 07:39:29;;;;;;;31.58;18.83;;;;;;;-1.34;100.00;100900.84;5068017;28;20121;-68
2024/01/10 07:41:54;;;;;;;26.60;16.58;;;;;;;-1.18;100.00;100899.50;5050372;28;20055;-66
2024/01/10 07:44:20;;;;;;;22.25;12.82;;;;;;;-1.10;100.00;100896.47;5048959;28;20036;-67
2024/01/10 07:46:45;;;;;;;36.00;21.05;;;;;;;-1.31;100.00;100909.50;5067775;28;20175;-65
2024/01/10 07:49:11;;;;;;;37.75;20.85;;;;;;;-1.17;100.00;100904.75;5032216;28;20029;-65
2024/01/10 07:51:36;;;;;;;28.85;17.85;;;;;;;-0.60;100.00;100909.38;5049622;28;20040;-68
2024/01/10 07:54:02;;;;;;;33.80;18.33;;;;;;;-0.36;100.00;100909.59;5043119;28;20024;-67
2024/01/10 07:56:27;;;;;;;29.23;16.33;;;;;;;-0.05;100.00;100916.06;5065788;28;20036;-69
2024/01/10 07:58:53;;;;;;;36.55;19.40;;;;;;;-0.03;100.00;100911.16;5051966;28;20456;-69
2024/01/10 08:01:18;;;;;;;62.88;27.48;;;;;;;0.11;100.00;100913.75;5071565;28;20473;-68
2024/01/10 08:03:44;;;;;;;67.03;28.98;;;;;;;-0.06;100.00;100911.63;5070164;28;20028;-67
2024/01/10 08:06:12;;;;;;;28.17;14.60;;;;;;;-0.52;100.00;100913.75;5068122;28;20047;-68
2024/01/10 08:08:37;;;;;;;22.00;13.85;;;;;;;-0.75;100.00;100912.47;5052910;28;20460;-70
2024/01/10 08:11:03;;;;;;;25.58;14.60;;;;;;;-0.48;100.00;100917.75;5070735;28;20056;-67
2024/01/10 08:13:28;;;;;;;28.20;18.17;;;;;;;-0.59;100.00;100922.06;5069231;28;20111;-67
2024/01/10 08:15:54;;;;;;;33.70;19.00;;;;;;;-0.29;100.00;100915.03;5084064;28;20039;-67
2024/01/10 08:18:19;;;;;;;50.33;31.08;;;;;;;-0.41;100.00;100912.19;5070579;28;20872;-67
2024/01/10 08:20:45;;;;;;;30.48;15.00;;;;;;;-0.17;100.00;100913.19;5054131;28;20028;-68
2024/01/10 08:23:10;;;;;;;25.70;13.25;;;;;;;0.00;100.00;100915.38;5072681;28;20032;-67
2024/01/10 08:25:36;;;;;;;24.42;13.60;;;;;;;0.34;100.00;100920.47;5069781;28;20039;-68
2024/01/10 08:28:04;;;;;;;22.15;12.35;;;;;;;0.68;99.55;100910.69;5070235;28;20039;-67
2024/01/10 08:30:32;;;;;;;29.65;15.93;;;;;;;0.27;95.10;100912.28;5055281;28;20025;-66
2024/01/10 08:32:57;;;;;;;29.65;15.48;;;;;;;-0.34;97.45;100909.38;5063597;28;20421;-70
2024/01/10 08:35:23;;;;;;;27.08;12.90;;;;;;;-0.70;95.95;100914.56;5067297;28;20036;-70
2024/01/10 08:37:49;;;;;;;23.77;13.52;;;;;;;-0.78;96.52;100915.69;5066639;28;20048;-70
2024/01/10 08:40:15;;;;;;;23.27;12.95;;;;;;;-0.60;99.25;100919.56;5085353;28;20036;-74
2024/01/10 08:42:42;;;;;;;19.58;11.48;;;;;;;-0.67;99.35;100913.28;5062030;28;20029;-71
2024/01/10 08:45:09;;;;;;;23.25;12.82;;;;;;;-0.33;100.00;100913.81;5046854;28;20484;-70
2024/01/10 08:47:35;;;;;;;20.15;11.05;;;;;;;-0.20;99.02;100919.16;5062290;28;20059;-71
2024/01/10 08:50:04;;;;;;;20.17;11.23;;;;;;;-0.16;99.42;100908.56;5080813;28;20123;-72
2024/01/10 08:52:31;;;;;;;19.10;9.57;;;;;;;0.06;96.44;100910.84;5053109;28;20119;-70
2024/01/10 08:54:56;;;;;;;16.95;9.80;;;;;;;-0.17;94.32;100913.19;5069414;28;20035;-70
2024/01/10 08:57:22;;;;;;;33.05;11.95;;;;;;;0.21;98.02;100914.06;5068429;28;20036;-71
2024/01/10 08:59:48;;;;;;;18.08;10.35;;;;;;;-0.04;98.50;100908.63;5053300;28;20098;-72
2024/01/10 09:02:14;;;;;;;23.60;11.68;;;;;;;-0.22;97.28;100909.44;5068661;28;20508;-69
2024/01/10 09:04:40;;;;;;;19.50;11.43;;;;;;;-0.38;97.19;100913.63;5064167;28;20021;-69
2024/01/10 09:07:07;;;;;;;24.73;14.70;;;;;;;-0.47;96.88;100905.69;5040969;28;20416;-69
2024/01/10 09:09:32;;;;;;;22.77;13.63;;;;;;;-0.06;96.98;100897.00;5072495;28;20032;-70
2024/01/10 09:11:58;;;;;;;22.90;13.52;;;;;;;-0.06;96.24;100900.63;5066408;28;20048;-71
2024/01/10 09:14:23;;;;;;;19.65;11.88;;;;;;;-0.68;94.83;100900.59;5052520;28;20062;-69
2024/01/10 09:16:48;;;;;;;16.92;11.60;;;;;;;-0.73;95.50;100899.34;5068236;28;20052;-69
2024/01/10 09:19:14;;;;;;;21.77;11.32;;;;;;;-0.47;95.96;100902.09;5079643;28;20032;-70
2024/01/10 09:21:40;;;;;;;22.65;12.73;;;;;;;-0.36;95.71;100897.75;5062877;28;20570;-70
2024/01/10 09:24:08;;;;;;;20.23;11.30;;;;;;;-0.54;98.05;100898.53;5071104;28;20433;-69
2024/01/10 09:26:34;;;;;;;24.65;14.38;;;;;;;-0.33;97.88;100897.31;5070373;28;20551;-69
2024/01/10 09:28:59;;;;;;;28.98;14.35;;;;;;;-0.11;98.42;100894.94;5062915;28;20165;-69
2024/01/10 09:31:25;;;;;;;27.75;15.40;;;;;;;-0.34;97.40;100890.94;5049538;28;20067;-69
2024/01/10 09:33:50;;;;;;;20.17;12.52;;;;;;;-0.56;97.03;100893.28;5057908;28;20078;-71
2024/01/10 09:36:38;;;;;;;21.48;13.05;;;;;;;-0.33;97.55;100887.13;5076255;28;20032;-70
2024/01/10 09:39:05;;;;;;;25.23;14.55;;;;;;;-0.02;98.83;100887.22;5060301;28;20037;-71
2024/01/10 09:41:35;;;;;;;28.88;15.05;;;;;;;0.19;96.71;100894.19;5067826;28;20446;-71
2024/01/10 09:44:00;;;;;;;30.48;16.95;;;;;;;0.49;98.48;100879.59;5063496;28;20758;-70
2024/01/10 09:46:29;;;;;;;27.58;16.38;;;;;;;0.49;96.07;100878.78;5036201;28;20033;-69
2024/01/10 09:48:55;;;;;;;29.07;17.40;;;;;;;0.84;98.23;100878.03;5050995;28;20036;-68
2024/01/10 09:51:21;;;;;;;28.15;16.20;;;;;;;0.59;94.88;100873.53;5066982;28;20076;-71
2024/01/10 09:53:49;;;;;;;30.70;16.58;;;;;;;0.54;97.05;100871.50;5051538;28;20044;-73
2024/01/10 09:56:15;;;;;;;30.65;17.77;;;;;;;0.31;96.82;100866.72;5070400;28;20052;-72
2024/01/10 09:58:45;;;;;;;33.05;16.58;;;;;;;0.56;97.97;100868.50;5070307;28;20139;-71
2024/01/10 10:01:11;;;;;;;35.17;19.50;;;;;;;0.78;97.36;100859.69;5041624;28;20505;-68
2024/01/10 10:03:41;;;;;;;39.72;22.13;;;;;;;1.06;96.11;100861.81;5067587;28;20024;-67
2024/01/10 10:06:08;;;;;;;33.45;17.60;;;;;;;1.12;92.09;100860.00;5060316;28;20037;-70
2024/01/10 10:08:33;;;;;;;34.60;17.90;;;;;;;1.26;92.19;100855.94;5051880;28;20082;-69
2024/01/10 10:10:59;;;;;;;52.40;30.92;;;;;;;1.52;90.86;100850.22;5052043;28;20520;-72
2024/01/10 10:13:29;;;;;;;56.53;22.05;;;;;;;1.67;91.87;100864.34;5051696;28;20401;-72
2024/01/10 10:16:02;;;;;;;38.88;23.52;;;;;;;1.58;89.37;100849.22;5068489;28;20406;-71
2024/01/10 10:18:29;;;;;;;34.30;18.80;;;;;;;1.57;91.48;100854.97;5050230;28;20028;-67
2024/01/10 10:21:27;;;;;;;26.00;15.48;;;;;;;1.32;88.51;100856.06;5050611;28;20083;-68
2024/01/10 10:24:03;;;;;;;30.00;17.58;;;;;;;1.35;90.48;100847.31;5048256;28;20040;-68
2024/01/10 10:26:32;;;;;;;27.25;15.43;;;;;;;1.30;88.37;100836.16;5051295;28;20037;-69
2024/01/10 10:28:57;;;;;;;27.33;16.67;;;;;;;0.36;92.29;100827.47;5068744;28;20413;-69
2024/01/10 10:31:24;;;;;;;31.02;17.35;;;;;;;0.54;93.96;100835.69;5069750;28;20048;-70
2024/01/10 10:33:51;;;;;;;23.20;14.05;;;;;;;0.72;93.56;100824.81;5069623;28;20031;-73
2024/01/10 10:36:16;;;;;;;28.30;14.45;;;;;;;0.64;92.86;100821.34;5076182;28;20084;-71
2024/01/10 10:38:42;;;;;;;22.67;12.85;;;;;;;0.61;92.00;100819.06;5050346;28;20033;-68
2024/01/10 10:41:10;;;;;;;23.70;13.48;;;;;;;0.66;92.89;100821.94;5067739;28;20492;-70
2024/01/10 10:43:38;;;;;;;21.63;12.85;;;;;;;0.86;91.53;100809.78;5079181;28;20059;-68
2024/01/10 10:46:08;;;;;;;20.42;11.80;;;;;;;0.79;90.97;100809.03;5068035;28;20047;-72
2024/01/10 10:48:36;;;;;;;20.20;12.55;;;;;;;1.08;91.20;100806.44;5068137;28;20040;-71
2024/01/10 10:51:10;;;;;;;23.70;13.23;;;;;;;1.17;90.00;100799.47;5068334;28;20036;-68
2024/01/10 10:53:38;;;;;;;28.77;14.75;;;;;;;1.22;90.97;100796.88;5066714;28;20064;-68
2024/01/10 10:56:05;;;;;;;28.17;14.55;;;;;;;1.40;91.05;100800.56;5056476;28;20036;-70
2024/01/10 10:58:50;;;;;;;19.40;11.88;;;;;;;1.12;88.17;100788.34;5047947;28;20028;-69
2024/01/10 11:01:17;;;;;;;23.40;12.00;;;;;;;0.90;93.65;100785.31;5061960;28;20040;-68